createdAt,value
2022-08-10T00:02:21.776Z,2.10
2022-08-10T00:04:53.131Z,2.13
2022-08-10T00:07:24.095Z,2.45
2022-08-10T00:09:54.993Z,1.83
2022-08-10T00:12:53.562Z,2.20
2022-08-10T00:15:44.165Z,2.58
2022-08-10T00:18:34.431Z,2.15
2022-08-10T00:21:05.049Z,2.00
2022-08-10T00:23:35.951Z,2.47
2022-08-10T00:26:07.759Z,2.42
2022-08-10T00:28:39.226Z,2.30
2022-08-10T00:31:13.307Z,2.15
2022-08-10T00:33:44.331Z,2.13
2022-08-10T00:36:15.622Z,2.33
2022-08-10T00:38:47.062Z,1.55
2022-08-10T00:41:18.398Z,1.80
2022-08-10T00:43:49.584Z,2.00
2022-08-10T00:46:23.563Z,2.35
2022-08-10T00:49:00.365Z,1.88
2022-08-10T00:51:32.487Z,2.13
2022-08-10T00:54:24.189Z,2.13
2022-08-10T00:57:18.041Z,1.77
2022-08-10T00:59:57.498Z,1.85
2022-08-10T01:02:35.664Z,1.60
2022-08-10T01:05:11.838Z,2.20
2022-08-10T01:08:08.898Z,2.00
2022-08-10T01:10:47.177Z,2.10
2022-08-10T01:13:24.608Z,2.15
2022-08-10T01:16:02.737Z,1.90
2022-08-10T01:18:46.020Z,1.70
2022-08-10T01:21:56.810Z,2.28
2022-08-10T01:24:56.608Z,2.30
2022-08-10T01:27:35.133Z,1.77
2022-08-10T01:30:11.305Z,2.10
2022-08-10T01:32:50.748Z,2.80
2022-08-10T01:35:36.660Z,2.45
2022-08-10T01:38:12.225Z,2.20
2022-08-10T01:40:49.797Z,1.67
2022-08-10T01:43:22.720Z,1.88
2022-08-10T01:46:00.770Z,1.73
2022-08-10T01:48:32.440Z,2.40
2022-08-10T01:51:16.475Z,2.25
2022-08-10T01:53:52.273Z,2.50
2022-08-10T01:56:26.298Z,2.10
2022-08-10T01:59:04.751Z,2.40
2022-08-10T02:01:43.328Z,2.30
2022-08-10T02:04:17.319Z,2.08
2022-08-10T02:06:50.871Z,2.55
2022-08-10T02:09:25.414Z,2.60
2022-08-10T02:12:07.299Z,2.25
2022-08-10T02:14:42.641Z,2.88
2022-08-10T02:18:00.568Z,1.75
2022-08-10T02:20:15.641Z,1.92
2022-08-10T02:22:49.743Z,2.53
2022-08-10T02:25:42.675Z,1.88
2022-08-10T02:28:29.822Z,2.72
2022-08-10T02:31:07.272Z,2.28
2022-08-10T02:33:57.666Z,2.20
2022-08-10T02:36:34.528Z,2.88
2022-08-10T02:39:08.175Z,2.30
2022-08-10T02:45:01.476Z,2.15
2022-08-10T02:45:22.198Z,2.35
2022-08-10T02:47:51.323Z,2.30
2022-08-10T02:50:31.203Z,2.80
2022-08-10T02:53:08.868Z,2.20
2022-08-10T02:56:04.103Z,2.45
2022-08-10T02:58:40.705Z,2.20
2022-08-10T03:01:14.860Z,2.00
2022-08-10T03:03:51.983Z,2.55
2022-08-10T03:06:34.023Z,1.83
2022-08-10T03:09:08.761Z,2.40
2022-08-10T03:12:35.532Z,2.20
2022-08-10T03:14:37.872Z,2.58
2022-08-10T03:17:10.961Z,1.65
2022-08-10T03:20:04.625Z,2.55
2022-08-10T03:22:39.611Z,1.70
2022-08-10T03:25:14.198Z,2.53
2022-08-10T03:27:47.219Z,1.98
2022-08-10T03:30:28.728Z,2.30
2022-08-10T03:33:06.297Z,2.30
2022-08-10T03:35:37.800Z,2.33
2022-08-10T03:38:11.358Z,2.10
2022-08-10T03:40:46.082Z,2.30
2022-08-10T03:43:21.147Z,2.30
2022-08-10T03:45:56.643Z,2.30
2022-08-10T03:48:42.450Z,2.50
2022-08-10T03:51:21.145Z,2.17
2022-08-10T03:54:05.128Z,1.70
2022-08-10T03:56:40.717Z,2.20
2022-08-10T03:59:13.998Z,2.30
2022-08-10T04:02:41.563Z,1.98
2022-08-10T04:04:38.595Z,2.45
2022-08-10T04:07:10.618Z,2.45
2022-08-10T04:09:55.368Z,2.35
2022-08-10T04:12:28.563Z,2.20
2022-08-10T04:15:00.172Z,2.63
2022-08-10T04:18:04.864Z,2.00
2022-08-10T04:20:24.140Z,2.33
2022-08-10T04:22:58.073Z,2.33
2022-08-10T04:25:35.040Z,2.45
2022-08-10T04:28:07.350Z,2.80
2022-08-10T04:30:40.760Z,2.65
2022-08-10T04:33:14.098Z,2.30
2022-08-10T04:35:46.894Z,3.00
2022-08-10T04:38:20.070Z,2.72
2022-08-10T04:40:55.187Z,2.65
2022-08-10T04:43:27.049Z,2.60
2022-08-10T04:45:58.637Z,2.70
2022-08-10T04:48:42.305Z,3.50
2022-08-10T04:51:22.797Z,3.10
2022-08-10T04:54:05.111Z,2.28
2022-08-10T04:56:42.053Z,2.80
2022-08-10T04:59:14.918Z,2.53
2022-08-10T05:02:30.214Z,2.45
2022-08-10T05:04:39.410Z,2.40
2022-08-10T05:07:16.733Z,2.15
2022-08-10T05:10:02.147Z,2.58
2022-08-10T05:12:40.498Z,2.63
2022-08-10T05:15:13.711Z,2.63
2022-08-10T05:18:06.915Z,2.88
2022-08-10T05:20:38.147Z,2.80
2022-08-10T05:23:09.626Z,2.35
2022-08-10T05:25:41.351Z,2.78
2022-08-10T05:28:15.287Z,2.38
2022-08-10T05:30:47.111Z,2.90
2022-08-10T05:33:18.386Z,2.63
2022-08-10T05:35:57.071Z,2.22
2022-08-10T05:38:31.509Z,1.83
2022-08-10T05:41:04.643Z,2.83
2022-08-10T05:43:39.221Z,2.85
2022-08-10T05:46:17.683Z,2.38
2022-08-10T05:48:58.677Z,3.28
2022-08-10T05:51:33.152Z,2.55
2022-08-10T05:54:06.776Z,2.50
2022-08-10T05:56:53.566Z,2.08
2022-08-10T06:00:10.666Z,2.20
2022-08-10T06:02:35.393Z,1.60
2022-08-10T06:05:14.770Z,2.00
2022-08-10T06:07:51.290Z,1.48
2022-08-10T06:10:32.081Z,1.60
2022-08-10T06:13:27.066Z,1.88
2022-08-10T06:18:39.054Z,2.60
2022-08-10T06:21:10.878Z,1.83
2022-08-10T06:23:42.263Z,1.50
2022-08-10T06:26:17.385Z,1.52
2022-08-10T06:29:03.173Z,1.65
2022-08-10T06:31:48.767Z,1.55
2022-08-10T06:34:25.639Z,1.60
2022-08-10T06:36:58.398Z,1.60
2022-08-10T06:39:34.211Z,2.97
2022-08-10T06:42:17.647Z,1.88
2022-08-10T06:45:00.294Z,2.30
2022-08-10T06:47:40.561Z,2.05
2022-08-10T06:50:44.531Z,2.40
2022-08-10T06:53:15.340Z,2.53
2022-08-10T06:55:56.564Z,2.80
2022-08-10T06:58:32.482Z,1.88
2022-08-10T07:01:15.061Z,2.20
2022-08-10T07:03:52.338Z,1.85
2022-08-10T07:06:25.143Z,1.90
2022-08-10T07:08:58.395Z,1.30
2022-08-10T07:11:32.249Z,1.80
2022-08-10T07:14:16.213Z,2.22
2022-08-10T07:16:52.222Z,2.65
2022-08-10T07:19:29.183Z,2.70
2022-08-10T07:22:01.206Z,1.95
2022-08-10T07:24:33.695Z,1.67
2022-08-10T07:27:07.154Z,2.08
2022-08-10T07:29:53.464Z,1.60
2022-08-10T07:32:27.692Z,1.65
2022-08-10T07:35:01.969Z,2.10
2022-08-10T07:37:34.982Z,2.38
2022-08-10T07:40:08.598Z,1.95
2022-08-10T07:42:45.704Z,2.40
2022-08-10T07:45:17.671Z,2.00
2022-08-10T07:47:54.462Z,2.10
2022-08-10T07:50:33.113Z,2.25
2022-08-10T07:53:09.543Z,2.08
2022-08-10T07:56:01.430Z,2.20
2022-08-10T07:58:49.765Z,1.53
2022-08-10T08:01:27.533Z,1.90
2022-08-10T08:04:11.491Z,2.05
2022-08-10T08:06:47.865Z,1.58
2022-08-10T08:09:19.715Z,2.38
2022-08-10T08:11:53.240Z,2.05
2022-08-10T08:14:26.183Z,2.67
2022-08-10T08:16:58.858Z,2.00
2022-08-10T08:19:37.795Z,2.00
2022-08-10T08:24:06.200Z,2.08
2022-08-10T08:25:14.525Z,1.77
2022-08-10T08:27:53.228Z,1.95
2022-08-10T08:30:26.909Z,1.80
2022-08-10T08:33:00.213Z,1.60
2022-08-10T08:35:51.723Z,2.75
2022-08-10T08:38:31.781Z,1.40
2022-08-10T08:41:24.146Z,1.90
2022-08-10T08:44:06.749Z,1.70
2022-08-10T08:46:59.217Z,2.00
2022-08-10T08:50:08.293Z,1.75
2022-08-10T08:52:54.438Z,1.83
2022-08-10T08:56:02.861Z,2.13
2022-08-10T08:58:51.850Z,1.50
2022-08-10T09:01:38.129Z,1.60
2022-08-10T09:04:30.802Z,1.85
2022-08-10T09:08:00.627Z,2.40
2022-08-10T09:10:24.710Z,1.75
2022-08-10T09:13:05.127Z,1.75
2022-08-10T09:15:44.288Z,1.65
2022-08-10T09:18:23.697Z,1.75
2022-08-10T09:21:04.546Z,2.38
2022-08-10T09:24:04.609Z,1.58
2022-08-10T09:26:49.449Z,1.55
2022-08-10T09:29:29.938Z,1.42
2022-08-10T09:36:15.736Z,1.63
2022-08-10T09:36:21.415Z,1.63
2022-08-10T09:38:16.647Z,1.60
2022-08-10T09:40:59.414Z,1.67
2022-08-10T09:43:44.457Z,1.70
2022-08-10T09:46:33.844Z,1.58
2022-08-10T09:49:17.240Z,1.63
2022-08-10T09:52:00.472Z,1.60
2022-08-10T09:54:47.084Z,1.40
2022-08-10T09:57:41.598Z,1.38
2022-08-10T10:00:19.314Z,1.20
2022-08-10T10:03:08.472Z,1.90
2022-08-10T10:05:54.259Z,1.42
2022-08-10T10:08:39.471Z,1.35
2022-08-10T10:11:24.115Z,1.60
2022-08-10T10:14:12.337Z,1.65
2022-08-10T10:16:56.614Z,1.50
2022-08-10T10:19:51.829Z,1.42
2022-08-10T10:22:50.155Z,1.33
2022-08-10T10:25:50.373Z,1.73
2022-08-10T10:29:11.798Z,1.48
2022-08-10T10:31:35.845Z,1.60
2022-08-10T10:34:15.833Z,1.80
2022-08-10T10:36:52.002Z,1.73
2022-08-10T10:39:27.928Z,1.45
2022-08-10T10:42:11.657Z,1.30
2022-08-10T10:44:59.769Z,1.55
2022-08-10T10:47:46.924Z,1.50
2022-08-10T10:50:25.950Z,1.52
2022-08-10T10:53:13.801Z,1.80
2022-08-10T10:56:15.320Z,1.60
2022-08-10T10:59:02.206Z,1.35
2022-08-10T11:02:04.118Z,1.33
2022-08-10T11:04:44.217Z,1.50
2022-08-10T11:07:28.454Z,1.20
2022-08-10T11:10:32.726Z,2.05
2022-08-10T11:14:27.565Z,1.60
2022-08-10T11:16:14.935Z,1.42
2022-08-10T11:19:00.831Z,1.60
2022-08-10T11:21:47.005Z,1.67
2022-08-10T11:24:48.164Z,1.60
2022-08-10T11:27:35.551Z,1.60
2022-08-10T11:30:11.766Z,1.55
2022-08-10T11:32:58.096Z,1.50
2022-08-10T11:35:35.423Z,1.60
2022-08-10T11:38:30.066Z,1.45
2022-08-10T11:42:05.508Z,1.77
2022-08-10T11:44:14.165Z,1.52
2022-08-10T11:46:51.319Z,1.55
2022-08-10T11:49:31.283Z,1.30
2022-08-10T11:52:10.789Z,1.63
2022-08-10T11:54:47.005Z,1.38
2022-08-10T11:57:23.773Z,1.52
2022-08-10T11:59:59.435Z,1.63
2022-08-10T12:02:37.023Z,1.27
2022-08-10T12:05:12.597Z,1.20
2022-08-10T12:10:04.375Z,1.55
2022-08-10T12:10:40.865Z,1.48
2022-08-10T12:13:18.435Z,1.50
2022-08-10T12:16:05.149Z,1.30
2022-08-10T12:18:46.614Z,1.20
2022-08-10T12:21:23.617Z,1.30
2022-08-10T12:24:03.314Z,1.73
2022-08-10T12:26:41.698Z,1.30
2022-08-10T12:29:19.730Z,1.80
2022-08-10T12:32:01.099Z,1.25
2022-08-10T12:34:38.334Z,1.42
2022-08-10T12:37:21.060Z,1.30
2022-08-10T12:40:33.299Z,1.60
2022-08-10T12:43:12.946Z,1.58
2022-08-10T12:46:06.531Z,1.42
2022-08-10T12:48:51.763Z,1.33
2022-08-10T12:51:27.974Z,1.25
2022-08-10T12:54:06.341Z,1.33
2022-08-10T12:56:41.012Z,1.15
2022-08-10T12:59:16.010Z,1.35
2022-08-10T13:02:09.639Z,1.10
2022-08-10T13:04:47.995Z,1.10
2022-08-10T13:08:24.516Z,1.50
2022-08-10T13:10:20.822Z,1.17
2022-08-10T13:12:54.555Z,1.48
2022-08-10T13:15:49.913Z,1.05
2022-08-10T13:18:21.928Z,1.40
2022-08-10T13:20:59.473Z,0.85
2022-08-10T13:23:35.373Z,1.23
2022-08-10T13:26:07.353Z,1.48
2022-08-10T13:28:49.720Z,1.63
2022-08-10T13:32:03.776Z,1.40
2022-08-10T13:34:43.302Z,1.63
2022-08-10T13:37:19.098Z,1.17
2022-08-10T13:39:59.163Z,1.00
2022-08-10T13:42:34.988Z,1.60
2022-08-10T13:45:12.640Z,1.40
2022-08-10T13:47:49.964Z,1.35
2022-08-10T13:50:33.409Z,1.27
2022-08-10T13:53:16.324Z,1.10
2022-08-10T13:55:56.395Z,1.25
2022-08-10T13:58:33.470Z,1.27
2022-08-10T14:03:46.607Z,1.60
2022-08-10T14:06:20.681Z,1.48
2022-08-10T14:08:59.034Z,1.27
2022-08-10T14:11:34.189Z,1.10
2022-08-10T14:14:08.807Z,1.40
2022-08-10T14:16:45.736Z,1.00
2022-08-10T14:19:23.714Z,1.58
2022-08-10T14:21:57.186Z,1.13
2022-08-10T14:24:33.481Z,1.00
2022-08-10T14:27:10.970Z,1.17
2022-08-10T14:29:47.483Z,1.40
2022-08-10T14:36:15.311Z,1.20
2022-08-10T14:37:50.364Z,1.00
2022-08-10T14:40:29.155Z,1.13
2022-08-10T14:43:05.260Z,1.50
2022-08-10T14:45:39.144Z,1.30
2022-08-10T14:48:15.031Z,1.38
2022-08-10T14:50:55.133Z,1.17
2022-08-10T14:53:30.397Z,1.00
2022-08-10T14:56:13.777Z,1.13
2022-08-10T14:58:59.306Z,0.95
2022-08-10T15:02:00.265Z,1.48
2022-08-10T15:04:35.409Z,1.20
2022-08-10T15:07:13.024Z,0.90
2022-08-10T15:10:01.156Z,1.10
2022-08-10T15:12:39.496Z,0.98
2022-08-10T15:15:17.932Z,1.55
2022-08-10T15:18:02.855Z,1.35
2022-08-10T15:20:37.516Z,1.50
2022-08-10T15:23:30.860Z,1.30
2022-08-10T15:26:11.415Z,1.13
2022-08-10T15:29:23.247Z,0.80
2022-08-10T15:32:01.995Z,1.20
2022-08-10T15:34:45.819Z,1.10
2022-08-10T15:37:39.933Z,1.10
2022-08-10T15:40:24.362Z,1.05
2022-08-10T15:43:05.633Z,0.98
2022-08-10T15:46:01.954Z,1.35
2022-08-10T15:48:41.863Z,1.38
2022-08-10T15:51:28.531Z,1.25
2022-08-10T15:54:12.095Z,1.42
2022-08-10T15:56:47.681Z,1.20
2022-08-10T15:59:23.086Z,1.20
2022-08-10T16:02:04.582Z,1.08
2022-08-10T16:04:52.393Z,1.25
2022-08-10T16:07:45.346Z,1.30
2022-08-10T16:10:25.574Z,1.10
2022-08-10T16:13:01.858Z,1.02
2022-08-10T16:15:34.773Z,1.33
2022-08-10T16:18:11.917Z,1.38
2022-08-10T16:20:53.196Z,1.10
2022-08-10T16:23:29.583Z,1.10
2022-08-10T16:26:13.524Z,2.30
2022-08-10T16:28:49.944Z,1.55
2022-08-10T16:31:24.314Z,1.63
2022-08-10T16:33:59.910Z,1.40
2022-08-10T16:36:36.897Z,1.73
2022-08-10T16:39:15.579Z,1.48
2022-08-10T16:42:05.964Z,2.38
2022-08-10T16:44:42.374Z,1.30
2022-08-10T16:47:15.466Z,1.98
2022-08-10T16:49:50.136Z,1.23
2022-08-10T16:52:25.547Z,1.40
2022-08-10T16:55:00.639Z,1.77
2022-08-10T16:57:49.713Z,2.30
2022-08-10T17:00:23.806Z,2.00
2022-08-10T17:02:57.415Z,1.80
2022-08-10T17:06:09.945Z,2.38
2022-08-10T17:08:25.962Z,1.63
2022-08-10T17:10:59.438Z,1.90
2022-08-10T17:13:32.176Z,1.45
2022-08-10T17:16:07.269Z,1.40
2022-08-10T17:18:41.325Z,1.73
2022-08-10T17:21:21.209Z,1.98
2022-08-10T17:23:55.796Z,1.55
2022-08-10T17:26:35.833Z,2.00
2022-08-10T17:29:50.560Z,2.10
2022-08-10T17:32:11.346Z,1.20
2022-08-10T17:34:43.541Z,1.60
2022-08-10T17:37:20.759Z,1.30
2022-08-10T17:39:55.917Z,1.70
2022-08-10T17:45:00.265Z,1.10
2022-08-10T17:47:32.590Z,1.33
2022-08-10T17:50:04.488Z,1.30
2022-08-10T17:52:38.483Z,1.20
2022-08-10T17:55:11.774Z,1.10
2022-08-10T17:57:46.313Z,1.80
2022-08-10T18:00:17.704Z,1.23
2022-08-10T18:02:49.939Z,1.65
2022-08-10T18:05:22.808Z,1.63
2022-08-10T18:07:59.265Z,1.35
2022-08-10T18:10:31.947Z,1.85
2022-08-10T18:13:04.746Z,2.00
2022-08-10T18:15:39.472Z,2.80
2022-08-10T18:18:15.863Z,2.33
2022-08-10T18:20:47.238Z,2.17
2022-08-10T18:23:28.588Z,2.00
2022-08-10T18:26:05.670Z,1.50
2022-08-10T18:28:40.015Z,1.60
2022-08-10T18:31:11.765Z,1.92
2022-08-10T18:33:47.751Z,1.35
2022-08-10T18:36:22.298Z,2.10
2022-08-10T18:39:00.555Z,1.73
2022-08-10T18:41:37.147Z,1.88
2022-08-10T18:44:12.820Z,1.80
2022-08-10T18:46:50.524Z,1.90
2022-08-10T18:49:32.128Z,1.95
2022-08-10T18:52:06.149Z,1.45
2022-08-10T18:54:46.379Z,1.30
2022-08-10T18:57:37.562Z,1.90
2022-08-10T19:00:13.298Z,1.50
2022-08-10T19:03:13.327Z,2.47
2022-08-10T19:06:02.354Z,2.30
2022-08-10T19:08:52.086Z,1.65
2022-08-10T19:11:44.855Z,1.92
2022-08-10T19:14:20.497Z,1.38
2022-08-10T19:17:09.508Z,1.70
2022-08-10T19:19:49.432Z,1.48
2022-08-10T19:22:27.482Z,1.88
2022-08-10T19:25:10.434Z,1.55
2022-08-10T19:27:53.450Z,2.15
2022-08-10T19:30:39.145Z,2.15
2022-08-10T19:33:25.670Z,2.22
2022-08-10T19:36:06.807Z,2.33
2022-08-10T19:38:50.527Z,1.92
2022-08-10T19:41:32.207Z,2.05
2022-08-10T19:44:25.560Z,2.17
2022-08-10T19:47:03.311Z,2.15
2022-08-10T19:49:43.356Z,2.13
2022-08-10T19:52:25.550Z,1.90
2022-08-10T19:55:01.906Z,1.90
2022-08-10T19:57:39.305Z,1.88
2022-08-10T20:00:22.980Z,2.22
2022-08-10T20:03:10.810Z,2.65
2022-08-10T20:06:13.262Z,1.85
2022-08-10T20:08:53.059Z,1.88
2022-08-10T20:11:44.909Z,2.00
2022-08-10T20:14:23.194Z,1.88
2022-08-10T20:17:05.649Z,2.17
2022-08-10T20:19:53.941Z,1.92
2022-08-10T20:22:30.841Z,1.92
2022-08-10T20:25:07.644Z,2.25
2022-08-10T20:28:00.564Z,1.90
2022-08-10T20:30:37.838Z,1.92
2022-08-10T20:33:18.909Z,1.98
2022-08-10T20:35:57.398Z,2.15
2022-08-10T20:38:35.840Z,2.10
2022-08-10T20:41:18.951Z,1.80
2022-08-10T20:44:03.566Z,1.92
2022-08-10T20:46:46.770Z,2.20
2022-08-10T20:49:31.722Z,1.98
2022-08-10T20:52:06.162Z,1.98
2022-08-10T20:54:40.004Z,2.28
2022-08-10T20:58:04.214Z,2.05
2022-08-10T21:00:34.129Z,2.25
2022-08-10T21:03:40.703Z,2.38
2022-08-10T21:06:42.970Z,2.10
2022-08-10T21:09:27.846Z,2.25
2022-08-10T21:12:16.351Z,2.50
2022-08-10T21:15:17.705Z,2.10
2022-08-10T21:18:03.781Z,2.20
2022-08-10T21:21:01.429Z,2.20
2022-08-10T21:23:39.453Z,2.28
2022-08-10T21:26:13.727Z,2.20
2022-08-10T21:29:12.977Z,2.35
2022-08-10T21:32:07.078Z,1.95
2022-08-10T21:34:55.317Z,2.67
2022-08-10T21:37:40.283Z,2.30
2022-08-10T21:40:34.669Z,2.13
2022-08-10T21:43:44.483Z,2.22
2022-08-10T21:46:39.989Z,2.20
2022-08-10T21:49:50.885Z,2.13
2022-08-10T21:52:40.736Z,2.53
2022-08-10T21:55:57.988Z,2.38
2022-08-10T21:58:44.715Z,2.42
2022-08-10T22:01:39.559Z,2.08
2022-08-10T22:04:24.116Z,1.90
2022-08-10T22:07:10.084Z,2.55
2022-08-10T22:09:58.152Z,2.40
2022-08-10T22:12:47.772Z,2.17
2022-08-10T22:16:03.975Z,1.90
2022-08-10T22:18:53.897Z,2.05
2022-08-10T22:21:55.967Z,2.42
2022-08-10T22:24:52.016Z,1.92
2022-08-10T22:27:46.641Z,2.15
2022-08-10T22:30:35.991Z,2.10
2022-08-10T22:33:43.444Z,2.22
2022-08-10T22:36:45.594Z,2.30
2022-08-10T22:40:11.355Z,2.28
2022-08-10T22:42:59.082Z,2.35
2022-08-10T22:46:03.274Z,2.17
2022-08-10T22:48:46.613Z,2.15
2022-08-10T22:51:24.095Z,2.00
2022-08-10T22:54:11.038Z,2.00
2022-08-10T22:57:15.664Z,2.45
2022-08-10T22:59:46.496Z,2.08
2022-08-10T23:02:29.709Z,2.60
2022-08-10T23:05:08.162Z,3.38
2022-08-10T23:07:49.115Z,2.47
2022-08-10T23:10:24.571Z,2.38
2022-08-10T23:13:05.548Z,2.10
2022-08-10T23:15:52.450Z,2.15
2022-08-10T23:18:48.442Z,2.33
2022-08-10T23:21:20.778Z,2.92
2022-08-10T23:23:54.576Z,2.80
2022-08-10T23:26:28.035Z,2.30
2022-08-10T23:29:09.583Z,2.38
2022-08-10T23:32:01.144Z,2.50
2022-08-10T23:34:45.671Z,2.60
2022-08-10T23:37:38.157Z,2.10
2022-08-10T23:40:12.143Z,2.50
2022-08-10T23:42:46.004Z,2.70
2022-08-10T23:45:20.609Z,2.30
2022-08-10T23:47:54.321Z,2.45
2022-08-10T23:50:30.053Z,2.92
2022-08-10T23:53:10.744Z,2.30
2022-08-10T23:55:49.158Z,2.55
2022-08-10T23:58:33.259Z,2.50
